createdAt,value
2023-05-01T00:00:51.871Z,26.22
2023-05-01T00:01:51.905Z,26.23
2023-05-01T00:02:52.124Z,26.22
2023-05-01T00:03:52.167Z,26.23
2023-05-01T00:04:52.028Z,26.22
2023-05-01T00:05:51.948Z,26.22
2023-05-01T00:06:52.062Z,26.22
2023-05-01T00:07:52.002Z,26.22
2023-05-01T00:08:51.997Z,26.22
2023-05-01T00:09:52.062Z,26.21
2023-05-01T00:10:52.060Z,26.22
2023-05-01T00:11:52.089Z,26.22
2023-05-01T00:12:52.103Z,26.21
2023-05-01T00:13:52.128Z,26.21
2023-05-01T00:14:52.162Z,26.21
2023-05-01T00:15:52.183Z,26.21
2023-05-01T00:16:52.376Z,26.21
2023-05-01T00:17:52.254Z,26.21
2023-05-01T00:18:52.236Z,26.21
2023-05-01T00:19:52.243Z,26.20
2023-05-01T00:20:52.269Z,26.20
2023-05-01T00:21:52.287Z,26.20
2023-05-01T00:22:52.319Z,26.21
2023-05-01T00:23:52.335Z,26.21
2023-05-01T00:24:52.346Z,26.21
2023-05-01T00:25:52.381Z,26.21
2023-05-01T00:26:52.435Z,26.21
2023-05-01T00:27:52.497Z,26.20
2023-05-01T00:28:52.556Z,26.20
2023-05-01T00:29:52.602Z,26.20
2023-05-01T00:30:52.620Z,26.19
2023-05-01T00:31:52.731Z,26.19
2023-05-01T00:32:52.787Z,26.20
2023-05-01T00:33:52.683Z,26.19
2023-05-01T00:34:52.705Z,26.20
2023-05-01T00:35:52.717Z,26.20
2023-05-01T00:36:52.728Z,26.19
2023-05-01T00:37:52.747Z,26.19
2023-05-01T00:38:52.774Z,26.19
2023-05-01T00:39:52.800Z,26.18
2023-05-01T00:40:52.795Z,26.19
2023-05-01T00:41:52.821Z,26.18
2023-05-01T00:42:52.841Z,26.19
2023-05-01T00:43:52.844Z,26.19
2023-05-01T00:44:52.865Z,26.19
2023-05-01T00:45:52.940Z,26.19
2023-05-01T00:46:52.885Z,26.19
2023-05-01T00:47:53.005Z,26.19
2023-05-01T00:48:52.912Z,26.19
2023-05-01T00:49:53.071Z,26.18
2023-05-01T00:50:52.984Z,26.17
2023-05-01T00:51:52.979Z,26.18
2023-05-01T00:52:52.980Z,26.18
2023-05-01T00:53:53.135Z,26.19
2023-05-01T00:54:53.002Z,26.18
2023-05-01T00:55:53.024Z,26.19
2023-05-01T00:56:53.064Z,26.18
2023-05-01T00:57:53.072Z,26.17
2023-05-01T00:58:53.097Z,26.18
2023-05-01T00:59:53.174Z,26.17
2023-05-01T01:00:53.204Z,26.17
2023-05-01T01:01:55.652Z,26.17
2023-05-01T01:02:53.155Z,26.17
2023-05-01T01:03:53.194Z,26.17
2023-05-01T01:04:53.251Z,26.16
2023-05-01T01:05:53.200Z,26.17
2023-05-01T01:06:53.202Z,26.16
2023-05-01T01:07:53.211Z,26.16
2023-05-01T01:08:53.216Z,26.17
2023-05-01T01:09:53.245Z,26.16
2023-05-01T01:10:53.290Z,26.16
2023-05-01T01:11:53.267Z,26.16
2023-05-01T01:12:53.287Z,26.15
2023-05-01T01:13:53.289Z,26.16
2023-05-01T01:14:53.311Z,26.16
2023-05-01T01:15:53.328Z,26.17
2023-05-01T01:16:53.329Z,26.16
2023-05-01T01:17:53.349Z,26.15
2023-05-01T01:18:53.350Z,26.15
2023-05-01T01:19:53.643Z,26.15
2023-05-01T01:20:53.386Z,26.15
2023-05-01T01:21:53.382Z,26.15
2023-05-01T01:22:53.388Z,26.15
2023-05-01T01:23:53.409Z,26.15
2023-05-01T01:24:53.423Z,26.16
2023-05-01T01:25:53.597Z,26.15
2023-05-01T01:26:53.457Z,26.16
2023-05-01T01:27:53.457Z,26.16
2023-05-01T01:28:53.500Z,26.16
2023-05-01T01:29:53.656Z,26.16
2023-05-01T01:30:53.572Z,26.16
2023-05-01T01:31:53.534Z,26.16
2023-05-01T01:32:53.690Z,26.15
2023-05-01T01:33:53.561Z,26.15
2023-05-01T01:34:53.585Z,26.15
2023-05-01T01:35:53.619Z,26.15
2023-05-01T01:36:53.634Z,26.15
2023-05-01T01:37:53.648Z,26.15
2023-05-01T01:38:53.675Z,26.15
2023-05-01T01:39:53.988Z,26.15
2023-05-01T01:40:53.712Z,26.15
2023-05-01T01:41:53.738Z,26.15
2023-05-01T01:42:53.750Z,26.15
2023-05-01T01:43:53.757Z,26.15
2023-05-01T01:44:53.796Z,26.15
2023-05-01T01:45:53.828Z,26.15
2023-05-01T01:46:53.812Z,26.15
2023-05-01T01:47:53.884Z,26.15
2023-05-01T01:48:53.842Z,26.15
2023-05-01T01:49:54.073Z,26.14
2023-05-01T01:50:53.877Z,26.14
2023-05-01T01:51:53.879Z,26.14
2023-05-01T01:52:53.895Z,26.14
2023-05-01T01:53:53.892Z,26.14
2023-05-01T01:54:53.921Z,26.14
2023-05-01T01:55:53.914Z,26.14
2023-05-01T01:56:53.948Z,26.14
2023-05-01T01:57:53.926Z,26.14
2023-05-01T01:58:53.945Z,26.14
2023-05-01T01:59:54.089Z,26.14
2023-05-01T02:00:53.968Z,26.13
2023-05-01T02:01:54.027Z,26.14
2023-05-01T02:02:54.125Z,26.13
2023-05-01T02:03:54.168Z,26.13
2023-05-01T02:04:54.010Z,26.14
2023-05-01T02:05:54.031Z,26.13
2023-05-01T02:06:54.062Z,26.13
2023-05-01T02:07:54.069Z,26.13
2023-05-01T02:08:54.103Z,26.14
2023-05-01T02:09:54.151Z,26.13
2023-05-01T02:10:54.146Z,26.13
2023-05-01T02:11:54.169Z,26.12
2023-05-01T02:12:54.213Z,26.12
2023-05-01T02:13:54.211Z,26.12
2023-05-01T02:14:54.229Z,26.12
2023-05-01T02:15:54.289Z,26.11
2023-05-01T02:16:54.264Z,26.12
2023-05-01T02:17:54.324Z,26.12
2023-05-01T02:18:54.301Z,26.12
2023-05-01T02:19:54.503Z,26.12
2023-05-01T02:20:54.344Z,26.12
2023-05-01T02:21:54.364Z,26.12
2023-05-01T02:22:54.376Z,26.11
2023-05-01T02:23:54.384Z,26.12
2023-05-01T02:24:54.407Z,26.12
2023-05-01T02:25:54.443Z,26.11
2023-05-01T02:26:54.460Z,26.12
2023-05-01T02:27:54.477Z,26.11
2023-05-01T02:28:54.497Z,26.11
2023-05-01T02:29:54.807Z,26.11
2023-05-01T02:30:54.547Z,26.11
2023-05-01T02:31:54.614Z,26.11
2023-05-01T02:32:54.601Z,26.11
2023-05-01T02:33:54.591Z,26.12
2023-05-01T02:34:54.596Z,26.11
2023-05-01T02:35:54.619Z,26.11
2023-05-01T02:36:54.636Z,26.11
2023-05-01T02:37:54.669Z,26.10
2023-05-01T02:38:54.685Z,26.11
2023-05-01T02:39:54.906Z,26.11
2023-05-01T02:40:54.731Z,26.10
2023-05-01T02:41:54.731Z,26.10
2023-05-01T02:42:54.736Z,26.09
2023-05-01T02:43:54.739Z,26.11
2023-05-01T02:44:54.756Z,26.10
2023-05-01T02:45:55.105Z,26.10
2023-05-01T02:46:54.849Z,26.09
2023-05-01T02:47:54.884Z,26.09
2023-05-01T02:48:54.816Z,26.09
2023-05-01T02:49:55.114Z,26.09
2023-05-01T02:50:54.838Z,26.09
2023-05-01T02:51:54.849Z,26.08
2023-05-01T02:52:54.856Z,26.08
2023-05-01T02:53:54.874Z,26.08
2023-05-01T02:54:54.885Z,26.08
2023-05-01T02:55:54.913Z,26.08
2023-05-01T02:56:54.910Z,26.08
2023-05-01T02:57:54.914Z,26.08
2023-05-01T02:58:54.926Z,26.08
2023-05-01T02:59:55.085Z,26.07
2023-05-01T03:00:55.023Z,26.06
2023-05-01T03:01:54.968Z,26.04
2023-05-01T03:02:55.020Z,26.02
2023-05-01T03:03:55.018Z,26.01
2023-05-01T03:04:55.001Z,25.99
2023-05-01T03:05:55.017Z,25.98
2023-05-01T03:06:55.024Z,25.96
2023-05-01T03:07:55.063Z,25.93
2023-05-01T03:08:55.062Z,25.91
2023-05-01T03:09:55.396Z,25.89
2023-05-01T03:10:55.115Z,25.87
2023-05-01T03:11:55.136Z,25.84
2023-05-01T03:12:55.162Z,25.82
2023-05-01T03:13:55.191Z,25.79
2023-05-01T03:14:55.208Z,25.76
2023-05-01T03:15:55.336Z,25.74
2023-05-01T03:16:55.340Z,25.72
2023-05-01T03:17:55.381Z,25.70
2023-05-01T03:18:55.369Z,25.69
2023-05-01T03:19:55.598Z,25.66
2023-05-01T03:20:55.464Z,25.64
2023-05-01T03:21:55.492Z,25.62
2023-05-01T03:22:55.558Z,25.60
2023-05-01T03:23:55.595Z,25.58
2023-05-01T03:24:55.649Z,25.56
2023-05-01T03:25:55.709Z,25.55
2023-05-01T03:26:55.737Z,25.54
2023-05-01T03:27:55.804Z,25.52
2023-05-01T03:28:55.849Z,25.51
2023-05-01T03:29:56.013Z,25.50
2023-05-01T03:30:55.946Z,25.48
2023-05-01T03:31:56.015Z,25.45
2023-05-01T03:32:56.067Z,25.45
2023-05-01T03:33:56.093Z,25.43
2023-05-01T03:34:56.172Z,25.42
2023-05-01T03:35:56.212Z,25.41
2023-05-01T03:36:56.268Z,25.39
2023-05-01T03:37:56.334Z,25.38
2023-05-01T03:38:56.406Z,25.36
2023-05-01T03:39:56.711Z,25.35
2023-05-01T03:40:56.542Z,25.35
2023-05-01T03:41:56.588Z,25.33
2023-05-01T03:42:56.661Z,25.33
2023-05-01T03:43:56.742Z,25.31
2023-05-01T03:44:56.796Z,25.31
2023-05-01T03:45:56.965Z,25.28
2023-05-01T03:46:56.947Z,25.27
2023-05-01T03:47:57.083Z,25.26
2023-05-01T03:48:57.103Z,25.25
2023-05-01T03:49:57.600Z,25.24
2023-05-01T03:50:57.259Z,25.23
2023-05-01T03:51:57.327Z,25.22
2023-05-01T03:52:57.382Z,25.21
2023-05-01T03:53:57.476Z,25.20
2023-05-01T03:54:57.553Z,25.18
2023-05-01T03:55:57.631Z,25.18
2023-05-01T03:56:57.726Z,25.16
2023-05-01T03:57:57.806Z,25.14
2023-05-01T03:58:57.906Z,25.14
2023-05-01T03:59:58.171Z,25.13
2023-05-01T04:00:58.066Z,25.12
2023-05-01T04:01:58.229Z,25.12
2023-05-01T04:02:58.428Z,25.12
2023-05-01T04:03:58.456Z,25.11
2023-05-01T04:04:58.419Z,25.09
2023-05-01T04:05:58.569Z,25.08
2023-05-01T04:06:58.591Z,25.06
2023-05-01T04:07:58.675Z,25.06
2023-05-01T04:08:58.748Z,25.04
2023-05-01T04:09:58.885Z,25.04
2023-05-01T04:10:58.909Z,25.03
2023-05-01T04:11:58.997Z,25.02
2023-05-01T04:12:59.072Z,25.02
2023-05-01T04:13:59.142Z,25.01
2023-05-01T04:14:59.225Z,25.01
2023-05-01T04:15:59.352Z,25.00
2023-05-01T04:16:59.368Z,24.99
2023-05-01T04:17:59.421Z,24.98
2023-05-01T04:18:59.478Z,24.97
2023-05-01T04:19:59.580Z,24.96
2023-05-01T04:20:59.635Z,24.96
2023-05-01T04:21:59.724Z,24.95
2023-05-01T04:22:59.798Z,24.94
2023-05-01T04:23:59.863Z,24.93
2023-05-01T04:24:59.931Z,24.93
2023-05-01T04:26:00.009Z,24.92
2023-05-01T04:27:00.121Z,24.91
2023-05-01T04:28:00.163Z,24.90
2023-05-01T04:29:00.231Z,24.89
2023-05-01T04:30:00.623Z,24.89
2023-05-01T04:31:00.506Z,24.88
2023-05-01T04:32:00.556Z,24.88
2023-05-01T04:33:00.569Z,24.87
2023-05-01T04:34:00.576Z,24.86
2023-05-01T04:35:00.585Z,24.85
2023-05-01T04:36:00.611Z,24.86
2023-05-01T04:37:00.626Z,24.85
2023-05-01T04:38:00.643Z,24.84
2023-05-01T04:39:00.656Z,24.83
2023-05-01T04:40:00.680Z,24.83
2023-05-01T04:41:00.696Z,24.83
2023-05-01T04:42:00.726Z,24.83
2023-05-01T04:43:00.793Z,24.81
2023-05-01T04:44:00.872Z,24.81
2023-05-01T04:45:00.951Z,24.81
2023-05-01T04:46:01.053Z,24.81
2023-05-01T04:47:01.167Z,24.81
2023-05-01T04:48:01.239Z,24.80
2023-05-01T04:49:01.314Z,24.78
2023-05-01T04:50:01.329Z,24.78
2023-05-01T04:51:01.368Z,24.78
2023-05-01T04:52:01.400Z,24.77
2023-05-01T04:53:01.428Z,24.77
2023-05-01T04:54:01.459Z,24.76
2023-05-01T04:55:01.479Z,24.75
2023-05-01T04:56:01.518Z,24.75
2023-05-01T04:57:01.536Z,24.75
2023-05-01T04:58:01.551Z,24.74
2023-05-01T04:59:01.595Z,24.74
2023-05-01T05:00:01.608Z,24.74
2023-05-01T05:01:01.691Z,24.73
2023-05-01T05:02:01.718Z,24.72
2023-05-01T05:03:01.753Z,24.72
2023-05-01T05:04:01.831Z,24.72
2023-05-01T05:05:01.811Z,24.72
2023-05-01T05:06:01.922Z,24.72
2023-05-01T05:07:01.948Z,24.71
2023-05-01T05:08:01.998Z,24.70
2023-05-01T05:09:01.999Z,24.70
2023-05-01T05:10:02.020Z,24.70
2023-05-01T05:11:02.058Z,24.69
2023-05-01T05:12:02.097Z,24.68
2023-05-01T05:13:02.085Z,24.68
2023-05-01T05:14:02.111Z,24.67
2023-05-01T05:15:02.131Z,24.68
2023-05-01T05:16:02.199Z,24.67
2023-05-01T05:17:02.189Z,24.67
2023-05-01T05:18:02.279Z,24.66
2023-05-01T05:19:02.239Z,24.66
2023-05-01T05:20:02.253Z,24.66
2023-05-01T05:21:02.276Z,24.66
2023-05-01T05:22:02.348Z,24.66
2023-05-01T05:23:02.341Z,24.66
2023-05-01T05:24:02.343Z,24.65
2023-05-01T05:25:02.346Z,24.64
2023-05-01T05:26:02.376Z,24.65
2023-05-01T05:27:02.407Z,24.64
2023-05-01T05:28:02.457Z,24.64
2023-05-01T05:29:02.489Z,24.64
2023-05-01T05:30:02.551Z,24.63
2023-05-01T05:31:02.577Z,24.63
2023-05-01T05:32:02.804Z,24.62
2023-05-01T05:33:02.761Z,24.62
2023-05-01T05:34:02.763Z,24.62
2023-05-01T05:35:02.814Z,24.62
2023-05-01T05:36:02.861Z,24.62
2023-05-01T05:37:02.876Z,24.62
2023-05-01T05:38:02.938Z,24.61
2023-05-01T05:39:03.023Z,24.62
2023-05-01T05:40:03.139Z,24.61
2023-05-01T05:41:03.187Z,24.61
2023-05-01T05:42:03.219Z,24.60
2023-05-01T05:43:03.232Z,24.59
2023-05-01T05:44:03.277Z,24.59
2023-05-01T05:45:03.264Z,24.58
2023-05-01T05:46:03.361Z,24.58
2023-05-01T05:47:03.360Z,24.57
2023-05-01T05:48:03.447Z,24.57
2023-05-01T05:49:03.409Z,24.57
2023-05-01T05:50:03.470Z,24.56
2023-05-01T05:51:03.587Z,24.55
2023-05-01T05:52:03.685Z,24.55
2023-05-01T05:53:03.711Z,24.55
2023-05-01T05:54:03.729Z,24.56
2023-05-01T05:55:03.794Z,24.55
2023-05-01T05:56:03.799Z,24.55
2023-05-01T05:57:03.833Z,24.55
2023-05-01T05:58:03.855Z,24.55
2023-05-01T05:59:03.869Z,24.54
2023-05-01T06:00:03.878Z,24.54
2023-05-01T06:01:03.899Z,24.55
2023-05-01T06:02:03.975Z,24.53
2023-05-01T06:03:04.265Z,24.54
2023-05-01T06:04:04.200Z,24.54
2023-05-01T06:05:04.369Z,24.54
2023-05-01T06:06:04.450Z,24.53
2023-05-01T06:07:04.456Z,24.53
2023-05-01T06:08:04.358Z,24.53
2023-05-01T06:09:04.400Z,24.52
2023-05-01T06:10:04.409Z,24.52
2023-05-01T06:11:04.441Z,24.52
2023-05-01T06:12:04.463Z,24.52
2023-05-01T06:13:14.089Z,24.53
2023-05-01T06:14:05.495Z,24.52
2023-05-01T06:15:04.506Z,24.53
2023-05-01T06:16:04.597Z,24.52
2023-05-01T06:17:04.545Z,24.53
2023-05-01T06:18:04.581Z,24.52
2023-05-01T06:19:04.580Z,24.53
2023-05-01T06:20:04.622Z,24.52
2023-05-01T06:21:04.614Z,24.52
2023-05-01T06:22:04.647Z,24.53
2023-05-01T06:23:04.656Z,24.52
2023-05-01T06:24:04.680Z,24.52
2023-05-01T06:25:04.698Z,24.52
2023-05-01T06:26:04.717Z,24.52
2023-05-01T06:27:04.729Z,24.51
2023-05-01T06:28:04.764Z,24.51
2023-05-01T06:29:04.773Z,24.52
2023-05-01T06:30:04.795Z,24.52
2023-05-01T06:31:04.857Z,24.52
2023-05-01T06:32:04.831Z,24.52
2023-05-01T06:33:04.933Z,24.52
2023-05-01T06:34:04.880Z,24.52
2023-05-01T06:35:04.906Z,24.52
2023-05-01T06:36:04.920Z,24.53
2023-05-01T06:37:04.951Z,24.53
2023-05-01T06:38:04.981Z,24.53
2023-05-01T06:39:04.995Z,24.53
2023-05-01T06:40:05.038Z,24.53
2023-05-01T06:41:05.029Z,24.53
2023-05-01T06:42:05.071Z,24.53
2023-05-01T06:43:05.080Z,24.53
2023-05-01T06:44:05.096Z,24.52
2023-05-01T06:45:05.112Z,24.52
2023-05-01T06:46:05.131Z,24.53
2023-05-01T06:47:05.223Z,24.53
2023-05-01T06:48:05.164Z,24.53
2023-05-01T06:49:05.172Z,24.52
2023-05-01T06:50:05.914Z,24.53
2023-05-01T06:51:05.209Z,24.54
2023-05-01T06:52:05.244Z,24.54
2023-05-01T06:53:05.252Z,24.54
2023-05-01T06:54:05.253Z,24.55
2023-05-01T06:55:05.289Z,24.56
2023-05-01T06:56:05.480Z,24.55
2023-05-01T06:57:05.432Z,24.56
2023-05-01T06:58:16.044Z,24.56
2023-05-01T06:59:06.490Z,24.55
2023-05-01T07:00:05.504Z,24.56
2023-05-01T07:01:05.603Z,24.55
2023-05-01T07:02:05.724Z,24.56
2023-05-01T07:03:05.596Z,24.56
2023-05-01T07:04:05.577Z,24.56
2023-05-01T07:05:05.627Z,24.57
2023-05-01T07:06:05.638Z,24.58
2023-05-01T07:07:05.647Z,24.58
2023-05-01T07:08:05.685Z,24.59
2023-05-01T07:09:05.694Z,24.59
2023-05-01T07:10:05.727Z,24.59
2023-05-01T07:11:05.762Z,24.58
2023-05-01T07:12:05.816Z,24.59
2023-05-01T07:13:05.810Z,24.59
2023-05-01T07:14:05.869Z,24.58
2023-05-01T07:15:05.867Z,24.58
2023-05-01T07:16:05.948Z,24.59
2023-05-01T07:17:05.910Z,24.59
2023-05-01T07:19:05.951Z,24.59
2023-05-01T07:20:05.982Z,24.59
2023-05-01T07:21:06.023Z,24.59
2023-05-01T07:22:06.025Z,24.60
2023-05-01T07:23:07.490Z,24.60
2023-05-01T07:24:06.065Z,24.60
2023-05-01T07:25:06.090Z,24.60
2023-05-01T07:26:06.128Z,24.60
2023-05-01T07:27:06.136Z,24.60
2023-05-01T07:28:06.156Z,24.60
2023-05-01T07:29:06.196Z,24.61
2023-05-01T07:30:06.212Z,24.61
2023-05-01T07:31:06.229Z,24.63
2023-05-01T07:32:06.327Z,24.63
2023-05-01T07:33:06.307Z,24.62
2023-05-01T07:34:06.395Z,24.61
2023-05-01T07:35:06.337Z,24.61
2023-05-01T07:36:06.345Z,24.62
2023-05-01T07:37:06.378Z,24.63
2023-05-01T07:38:06.393Z,24.63
2023-05-01T07:39:06.414Z,24.62
2023-05-01T07:40:06.450Z,24.63
2023-05-01T07:41:06.458Z,24.62
2023-05-01T07:42:06.497Z,24.63
2023-05-01T07:43:06.520Z,24.63
2023-05-01T07:44:06.539Z,24.63
2023-05-01T07:45:06.574Z,24.64
2023-05-01T07:46:06.611Z,24.63
2023-05-01T07:47:06.621Z,24.63
2023-05-01T07:48:06.683Z,24.64
2023-05-01T07:49:06.645Z,24.62
2023-05-01T07:50:06.675Z,24.64
2023-05-01T07:51:06.688Z,24.63
2023-05-01T07:52:06.714Z,24.63
2023-05-01T07:53:06.714Z,24.62
2023-05-01T07:54:06.746Z,24.63
2023-05-01T07:55:06.750Z,24.63
2023-05-01T07:56:06.778Z,24.64
2023-05-01T07:57:06.804Z,24.63
2023-05-01T07:58:06.906Z,24.63
2023-05-01T07:59:06.923Z,24.62
2023-05-01T08:00:06.954Z,24.63
2023-05-01T08:01:06.955Z,24.63
2023-05-01T08:02:07.030Z,24.64
2023-05-01T08:03:07.342Z,24.65
2023-05-01T08:04:07.162Z,24.65
2023-05-01T08:05:07.061Z,24.65
2023-05-01T08:06:07.268Z,24.65
2023-05-01T08:07:07.080Z,24.65
2023-05-01T08:08:07.089Z,24.65
2023-05-01T08:09:07.114Z,24.64
2023-05-01T08:10:07.136Z,24.64
2023-05-01T08:11:07.164Z,24.65
2023-05-01T08:12:07.185Z,24.66
2023-05-01T08:13:07.195Z,24.66
2023-05-01T08:14:07.219Z,24.66
2023-05-01T08:15:07.231Z,24.66
2023-05-01T08:16:07.289Z,24.66
2023-05-01T08:17:07.269Z,24.66
2023-05-01T08:18:07.343Z,24.66
2023-05-01T08:19:07.301Z,24.66
2023-05-01T08:20:07.313Z,24.66
2023-05-01T08:21:07.343Z,24.65
2023-05-01T08:22:07.351Z,24.65
2023-05-01T08:23:07.380Z,24.65
2023-05-01T08:24:07.398Z,24.65
2023-05-01T08:25:07.412Z,24.65
2023-05-01T08:26:07.432Z,24.65
2023-05-01T08:27:07.454Z,24.64
2023-05-01T08:28:07.490Z,24.64
2023-05-01T08:29:07.488Z,24.64
2023-05-01T08:30:07.509Z,24.64
2023-05-01T08:31:07.543Z,24.65
2023-05-01T08:32:07.540Z,24.63
2023-05-01T08:33:07.594Z,24.65
2023-05-01T08:34:07.580Z,24.63
2023-05-01T08:35:07.624Z,24.63
2023-05-01T08:36:07.628Z,24.64
2023-05-01T08:37:07.650Z,24.63
2023-05-01T08:38:07.780Z,24.63
2023-05-01T08:39:07.730Z,24.64
2023-05-01T08:40:07.715Z,24.64
2023-05-01T08:41:07.760Z,24.64
2023-05-01T08:42:07.789Z,24.64
2023-05-01T08:43:07.814Z,24.65
2023-05-01T08:44:07.830Z,24.65
2023-05-01T08:45:07.898Z,24.65
2023-05-01T08:46:07.990Z,24.65
2023-05-01T08:47:08.161Z,24.65
2023-05-01T08:48:08.107Z,24.64
2023-05-01T08:49:08.074Z,24.66
2023-05-01T08:50:08.118Z,24.66
2023-05-01T08:51:08.138Z,24.65
2023-05-01T08:52:08.212Z,24.67
2023-05-01T08:53:08.333Z,24.66
2023-05-01T08:54:08.352Z,24.66
2023-05-01T08:55:08.390Z,24.67
2023-05-01T08:56:08.456Z,24.67
2023-05-01T08:57:10.378Z,24.67
2023-05-01T08:58:08.528Z,24.66
2023-05-01T08:59:08.569Z,24.66
2023-05-01T09:00:08.633Z,24.67
2023-05-01T09:01:08.732Z,24.67
2023-05-01T09:02:08.859Z,24.67
2023-05-01T09:03:08.912Z,24.68
2023-05-01T09:04:08.961Z,24.68
2023-05-01T09:05:08.959Z,24.70
2023-05-01T09:06:09.081Z,24.71
2023-05-01T09:07:09.121Z,24.74
2023-05-01T09:08:09.217Z,24.76
2023-05-01T09:09:09.294Z,24.78
2023-05-01T09:10:09.373Z,24.80
2023-05-01T09:11:09.463Z,24.82
2023-05-01T09:12:09.547Z,24.84
2023-05-01T09:13:09.610Z,24.86
2023-05-01T09:14:09.581Z,24.88
2023-05-01T09:15:09.631Z,24.90
2023-05-01T09:16:09.686Z,24.92
2023-05-01T09:17:09.652Z,24.95
2023-05-01T09:18:09.727Z,24.96
2023-05-01T09:19:09.750Z,24.99
2023-05-01T09:20:09.744Z,25.01
2023-05-01T09:21:09.803Z,25.03
2023-05-01T09:22:09.906Z,25.04
2023-05-01T09:23:10.024Z,25.06
2023-05-01T09:24:10.099Z,25.08
2023-05-01T09:25:10.182Z,25.11
2023-05-01T09:26:10.280Z,25.11
2023-05-01T09:27:10.351Z,25.13
2023-05-01T09:28:10.441Z,25.15
2023-05-01T09:29:10.530Z,25.16
2023-05-01T09:30:10.620Z,25.18
2023-05-01T09:31:10.694Z,25.19
2023-05-01T09:32:10.810Z,25.20
2023-05-01T09:33:11.015Z,25.21
2023-05-01T09:34:10.943Z,25.22
2023-05-01T09:35:11.035Z,25.22
2023-05-01T09:36:11.102Z,25.23
2023-05-01T09:37:11.187Z,25.24
2023-05-01T09:38:11.288Z,25.25
2023-05-01T09:39:11.359Z,25.27
2023-05-01T09:40:11.434Z,25.28
2023-05-01T09:41:11.499Z,25.29
2023-05-01T09:42:11.575Z,25.31
2023-05-01T09:43:11.965Z,25.32
2023-05-01T09:44:11.748Z,25.33
2023-05-01T09:45:11.812Z,25.34
2023-05-01T09:46:11.980Z,25.35
2023-05-01T09:47:11.965Z,25.36
2023-05-01T09:48:12.132Z,25.37
2023-05-01T09:49:12.097Z,25.37
2023-05-01T09:50:12.165Z,25.39
2023-05-01T09:51:12.235Z,25.40
2023-05-01T09:52:12.325Z,25.40
2023-05-01T09:53:12.387Z,25.41
2023-05-01T09:54:12.443Z,25.42
2023-05-01T09:55:12.514Z,25.43
2023-05-01T09:56:12.567Z,25.44
2023-05-01T09:57:12.641Z,25.45
2023-05-01T09:58:12.694Z,25.47
2023-05-01T09:59:12.774Z,25.47
2023-05-01T10:00:12.824Z,25.48
2023-05-01T10:01:12.894Z,25.50
2023-05-01T10:02:13.004Z,25.51
2023-05-01T10:03:13.097Z,25.52
2023-05-01T10:04:13.074Z,25.53
2023-05-01T10:05:13.129Z,25.54
2023-05-01T10:06:13.220Z,25.55
2023-05-01T10:07:13.248Z,25.55
2023-05-01T10:08:13.303Z,25.55
2023-05-01T10:09:13.351Z,25.56
2023-05-01T10:10:13.448Z,25.57
2023-05-01T10:11:13.490Z,25.57
2023-05-01T10:12:13.512Z,25.58
2023-05-01T10:13:13.580Z,25.58
2023-05-01T10:14:13.642Z,25.59
2023-05-01T10:15:24.750Z,25.60
2023-05-01T10:16:14.751Z,25.60
2023-05-01T10:17:13.831Z,25.61
2023-05-01T10:18:13.773Z,25.62
2023-05-01T10:19:13.716Z,25.63
2023-05-01T10:20:13.768Z,25.63
2023-05-01T10:21:13.753Z,25.64
2023-05-01T10:22:13.757Z,25.65
2023-05-01T10:23:13.782Z,25.66
2023-05-01T10:24:13.808Z,25.66
2023-05-01T10:25:13.800Z,25.67
2023-05-01T10:26:13.795Z,25.67
2023-05-01T10:27:13.865Z,25.68
2023-05-01T10:28:13.828Z,25.68
2023-05-01T10:29:13.845Z,25.70
2023-05-01T10:30:13.984Z,25.69
2023-05-01T10:31:13.920Z,25.70
2023-05-01T10:32:13.885Z,25.70
2023-05-01T10:33:13.957Z,25.71
2023-05-01T10:34:13.926Z,25.72
2023-05-01T10:35:13.979Z,25.72
2023-05-01T10:36:14.023Z,25.72
2023-05-01T10:37:14.078Z,25.73
2023-05-01T10:38:14.121Z,25.74
2023-05-01T10:39:14.156Z,25.74
2023-05-01T10:40:14.211Z,25.75
2023-05-01T10:41:14.246Z,25.76
2023-05-01T10:42:14.298Z,25.76
2023-05-01T10:43:14.345Z,25.77
2023-05-01T10:44:14.386Z,25.77
2023-05-01T10:45:14.443Z,25.77
2023-05-01T10:46:14.482Z,25.77
2023-05-01T10:47:14.494Z,25.78
2023-05-01T10:48:14.543Z,25.78
2023-05-01T10:49:14.566Z,25.79
2023-05-01T10:50:14.668Z,25.79
2023-05-01T10:51:14.669Z,25.80
2023-05-01T10:52:14.689Z,25.80
2023-05-01T10:53:14.868Z,25.81
2023-05-01T10:54:14.770Z,25.81
2023-05-01T10:55:14.818Z,25.82
2023-05-01T10:56:14.852Z,25.82
2023-05-01T10:57:14.886Z,25.82
2023-05-01T10:58:14.974Z,25.82
2023-05-01T10:59:14.966Z,25.82
2023-05-01T11:00:15.091Z,25.83
2023-05-01T11:01:15.117Z,25.83
2023-05-01T11:02:15.195Z,25.84
2023-05-01T11:03:15.147Z,25.85
2023-05-01T11:04:15.166Z,25.85
2023-05-01T11:05:15.252Z,25.86
2023-05-01T11:06:15.327Z,25.87
2023-05-01T11:07:15.457Z,25.88
2023-05-01T11:08:15.311Z,25.88
2023-05-01T11:09:15.345Z,25.89
2023-05-01T11:10:15.396Z,25.90
2023-05-01T11:11:15.424Z,25.90
2023-05-01T11:12:15.457Z,25.91
2023-05-01T11:13:15.512Z,25.91
2023-05-01T11:14:15.529Z,25.92
2023-05-01T11:15:15.565Z,25.94
2023-05-01T11:16:15.670Z,25.92
2023-05-01T11:17:15.637Z,25.92
2023-05-01T11:18:15.720Z,25.92
2023-05-01T11:19:15.710Z,25.93
2023-05-01T11:20:15.745Z,25.92
2023-05-01T11:21:15.794Z,25.92
2023-05-01T11:22:15.829Z,25.92
2023-05-01T11:23:15.851Z,25.92
2023-05-01T11:24:15.882Z,25.91
2023-05-01T11:25:15.916Z,25.91
2023-05-01T11:26:15.944Z,25.90
2023-05-01T11:27:15.988Z,25.91
2023-05-01T11:28:16.030Z,25.90
2023-05-01T11:29:16.111Z,25.89
2023-05-01T11:30:16.098Z,25.90
2023-05-01T11:31:16.137Z,25.90
2023-05-01T11:32:16.264Z,25.92
2023-05-01T11:33:16.230Z,25.94
2023-05-01T11:34:16.224Z,25.95
2023-05-01T11:35:16.255Z,25.96
2023-05-01T11:36:16.288Z,25.97
2023-05-01T11:37:16.319Z,25.99
2023-05-01T11:38:16.352Z,25.99
2023-05-01T11:39:16.402Z,26.01
2023-05-01T11:40:16.420Z,26.01
2023-05-01T11:41:16.664Z,26.02
2023-05-01T11:42:16.450Z,26.04
2023-05-01T11:43:16.457Z,26.04
2023-05-01T11:44:16.477Z,26.05
2023-05-01T11:45:16.497Z,26.06
2023-05-01T11:46:16.545Z,26.08
2023-05-01T11:47:16.545Z,26.08
2023-05-01T11:48:16.625Z,26.09
2023-05-01T11:49:16.577Z,26.11
2023-05-01T11:50:16.585Z,26.11
2023-05-01T11:51:16.620Z,26.12
2023-05-01T11:52:16.618Z,26.13
2023-05-01T11:53:16.657Z,26.14
2023-05-01T11:54:16.696Z,26.15
2023-05-01T11:55:16.683Z,26.16
2023-05-01T11:56:26.039Z,26.18
2023-05-01T11:57:17.717Z,26.17
2023-05-01T11:58:16.741Z,26.19
2023-05-01T11:59:17.677Z,26.20
2023-05-01T12:00:16.727Z,26.21
2023-05-01T12:01:16.777Z,26.21
2023-05-01T12:02:16.776Z,26.21
2023-05-01T12:03:16.849Z,26.22
2023-05-01T12:04:16.963Z,26.23
2023-05-01T12:05:16.822Z,26.23
2023-05-01T12:06:16.921Z,26.24
2023-05-01T12:07:16.809Z,26.24
2023-05-01T12:08:16.806Z,26.24
2023-05-01T12:09:16.852Z,26.26
2023-05-01T12:10:16.892Z,26.26
2023-05-01T12:11:16.920Z,26.26
2023-05-01T12:12:16.958Z,26.27
2023-05-01T12:13:17.031Z,26.28
2023-05-01T12:14:17.071Z,26.29
2023-05-01T12:15:17.154Z,26.29
2023-05-01T12:16:17.354Z,26.30
2023-05-01T12:17:17.362Z,26.30
2023-05-01T12:18:17.443Z,26.32
2023-05-01T12:19:17.538Z,26.32
2023-05-01T12:20:17.495Z,26.33
2023-05-01T12:21:17.555Z,26.34
2023-05-01T12:22:17.637Z,26.35
2023-05-01T12:23:17.701Z,26.35
2023-05-01T12:24:17.772Z,26.35
2023-05-01T12:25:17.835Z,26.36
2023-05-01T12:26:17.896Z,26.37
2023-05-01T12:27:17.929Z,26.37
2023-05-01T12:28:18.006Z,26.37
2023-05-01T12:29:18.073Z,26.38
2023-05-01T12:30:18.142Z,26.39
2023-05-01T12:31:18.231Z,26.39
2023-05-01T12:32:18.257Z,26.40
2023-05-01T12:33:18.500Z,26.41
2023-05-01T12:34:18.385Z,26.41
2023-05-01T12:35:18.464Z,26.41
2023-05-01T12:36:18.522Z,26.42
2023-05-01T12:37:18.572Z,26.43
2023-05-01T12:38:18.677Z,26.43
2023-05-01T12:39:18.739Z,26.43
2023-05-01T12:40:18.806Z,26.44
2023-05-01T12:41:18.895Z,26.45
2023-05-01T12:42:18.952Z,26.45
2023-05-01T12:43:18.958Z,26.46
2023-05-01T12:44:18.959Z,26.46
2023-05-01T12:45:18.981Z,26.47
2023-05-01T12:46:19.017Z,26.48
2023-05-01T12:47:18.990Z,26.48
2023-05-01T12:48:19.042Z,26.49
2023-05-01T12:49:18.991Z,26.50
2023-05-01T12:50:19.001Z,26.50
2023-05-01T12:51:19.006Z,26.50
2023-05-01T12:52:19.068Z,26.51
2023-05-01T12:53:19.143Z,26.52
2023-05-01T12:54:19.206Z,26.53